Weather at Silchar Airport

Public forecast

Using degrees Celsius for public forecast. Weather courtesy of forecast.io.

Closest aviation weather report (METAR) to Silchar Airport

Report is more than 6 hours old.

Closest report is Imphal Airport, 50.9 nm (94.2 km) E. Retrieved 2020/10/28 12:00 UTC (2 days ago):

VEIM 281200Z 27001KT 5000 BR FEW018 SCT020 27/22 Q1012 NOSIG

Aviation forecast (TAF) for Silchar Airport

Forecast is more than 12 hours old.

Retrieved 2020/10/28 12:30 UTC (2 days ago):

TAF VEKU 280930Z 2812/2824 07005KT 6000 SCT030 TEMPO 2820/2824 FEW025 SCT100